Overview Statistics Trail Chart Weather Telemetry Raw packets
 

This is the latest recevied weather packets stored in our database for station/object MB7UUE. If no packets are shown the sender has not sent any weather packets the latest 10 day(s).

<< 13 14 15 16 17 18 19 >>
Time Temp. Humidity Pressure Rain* Wind** Luminosity Snow
1788522765 21.11° C 66% 1012.3 hPa 0 mm - - -
1788522293 21.11° C 67% 1012.2 hPa 0 mm - - -
1788521625 21.11° C 67% 1012 hPa 0 mm - - -
1788521154 20.56° C 67% 1011.9 hPa 0 mm - - -
1788520486 20.56° C 67% 1012 hPa 0 mm - - -
1788520013 21.11° C 70% 1012.1 hPa 0 mm - - -
1788519345 21.11° C 70% 1012.1 hPa 0 mm - - -
1788518872 21.11° C 70% 1011.8 hPa 0 mm - - -
1788518206 20.56° C 72% 1011.8 hPa 0 mm - - -
1788517733 20.56° C 81% 1011.7 hPa 0 mm - - -
1788517066 20.56° C 81% 1011.4 hPa 0 mm - - -
1788516593 20° C 81% 1011.3 hPa 0 mm - - -
1788515925 20° C 81% 1011.4 hPa 0 mm - - -
1788515453 20° C 81% 1011.3 hPa 0 mm - - -
1788514786 19.44° C 83% 1011.5 hPa 0 mm - - -
1788514372 19.44° C 83% 1011.6 hPa 0 mm - - -
1788513645 18.89° C 84% 1011.6 hPa 1.52 mm - - -
1788513232 18.89° C 84% 1011.7 hPa 1.52 mm - - -
1788512506 18.89° C 75% 1011.3 hPa 1.52 mm - - -
1788511365 18.33° C 75% 1010.9 hPa 1.52 mm - - -
1788510226 19.44° C 75% 1010.8 hPa 1.27 mm - - -
1788509086 22.22° C 73% 1009.6 hPa 0 mm - - -
1788507945 22.22° C 73% 1009.3 hPa 0 mm - - -
1788506805 21.67° C 73% 1009.2 hPa 0 mm - - -
1788505666 21.67° C 73% 1009.2 hPa 0 mm - - -

* Rain latest hour (hover to see other rain measurements)
** Current wind speed in m/s (hover to see current wind gust speed)